Sjobris — SLXP — position and weather

sailwx.info

Track history (hours):
 
Tides and Currents Weather Stations Pressure Air Temp Water Temp Dewpoint Dewpoint Depression Visibility Wind Speed Wind Dir Waves Ship Positions

Sjobris

Last reported at 2017-Jul-23 02:30 UTC. Time now 2017-Jul-23 02:42 UTC.
Position N 59°20' E 018°05'.

Length 38 m.

Type: Passenger vessel. MMSI: 265522700.

Date/timePositionNaut miles runAvg speedWind from/ knotsBaromVisibWave heightAir tempDewpointWater temp
2017-Jul-23 02:30N 59°20' E 018°05'0 0.0
2017-Jul-23 02:00N 59°20' E 018°05'0 0.0
2017-Jul-23 01:30N 59°20' E 018°05'0 0.0
2017-Jul-23 01:00N 59°20' E 018°05'0 0.0
2017-Jul-23 00:30N 59°20' E 018°05'0 0.0
2017-Jul-23 00:00N 59°20' E 018°05'0 0.0
2017-Jul-22 23:30N 59°20' E 018°05'0 0.0
2017-Jul-22 23:00N 59°20' E 018°05'0 0.0
2017-Jul-22 22:30N 59°20' E 018°05'0 0.0
2017-Jul-22 22:00N 59°20' E 018°05'0 0.0
2017-Jul-22 21:30N 59°20' E 018°05'0 0.0
2017-Jul-22 21:00N 59°20' E 018°05'0 0.0
2017-Jul-22 20:30N 59°20' E 018°05'0 0.0
2017-Jul-22 20:00N 59°20' E 018°05'0 0.0
2017-Jul-22 19:30N 59°20' E 018°05'0 0.0
2017-Jul-22 19:00N 59°20' E 018°05'3 6.6
2017-Jul-22 18:30N 59°20' E 018°11'713.3
2017-Jul-22 18:00N 59°24' E 018°21'611.3
2017-Jul-22 17:30N 59°28' E 018°29'713.8
2017-Jul-22 17:00N 59°33' E 018°37'510.9
2017-Jul-22 16:30N 59°35' E 018°48'4 7.8
2017-Jul-22 16:00N 59°37' E 018°53'5 9.3
2017-Jul-22 15:30N 59°41' E 018°59'3 6.5
2017-Jul-22 15:00N 59°38' E 019°01'6 6.3
2017-Jul-22 14:01N 59°42' E 019°11'713.1
2017-Jul-22 13:31N 59°48' E 019°07'3 6.7
2017-Jul-22 13:00N 59°51' E 019°06'0 0.0
2017-Jul-22 12:30N 59°51' E 019°06'0 0.0
2017-Jul-22 12:00N 59°51' E 019°06'0 0.0
2017-Jul-22 11:30N 59°51' E 019°06'1 2.2
2017-Jul-22 11:00N 59°50' E 019°05'612.4
2017-Jul-22 10:30N 59°45' E 019°10'613.0
2017-Jul-22 10:00N 59°41' E 018°60'5 9.2
2017-Jul-22 09:30N 59°37' E 018°54'3 5.7
2017-Jul-22 09:01N 59°35' E 018°50'611.0
2017-Jul-22 08:30N 59°34' E 018°39'612.4
2017-Jul-22 08:00N 59°30' E 018°30'713.7
2017-Jul-22 07:30N 59°25' E 018°21'510.2
2017-Jul-22 07:00N 59°21' E 018°15'510.6
2017-Jul-22 06:31N 59°20' E 018°05'0 0.0
2017-Jul-22 06:00N 59°20' E 018°05'0 0.0
2017-Jul-22 05:31N 59°20' E 018°05'0 0.0
2017-Jul-22 05:01N 59°20' E 018°05'0 0.0
2017-Jul-22 04:30N 59°20' E 018°05'0 0.0
2017-Jul-22 04:00N 59°20' E 018°05'0 0.0
2017-Jul-22 03:30N 59°20' E 018°05'0 0.0
2017-Jul-22 03:00N 59°20' E 018°05'0 0.0
2017-Jul-22 02:31N 59°20' E 018°05'0 0.0
2017-Jul-22 02:01N 59°20' E 018°05'0 0.0
2017-Jul-22 01:30N 59°20' E 018°05'0 0.0
2017-Jul-22 01:00N 59°20' E 018°05'0 0.0
2017-Jul-22 00:30N 59°20' E 018°05'0 0.0
2017-Jul-22 00:00N 59°20' E 018°05'0 0.0
2017-Jul-21 23:30N 59°20' E 018°05'0 0.0
2017-Jul-21 23:00N 59°20' E 018°05'0 0.0
2017-Jul-21 22:31N 59°20' E 018°05'0 0.0
2017-Jul-21 22:01N 59°20' E 018°05'0 0.0
2017-Jul-21 21:31N 59°20' E 018°05'0 0.0
2017-Jul-21 21:00N 59°20' E 018°05'0 0.0
2017-Jul-21 20:31N 59°20' E 018°05'0 0.0
2017-Jul-21 20:00N 59°20' E 018°05'0 0.0
2017-Jul-21 19:30N 59°20' E 018°05'0 0.1
2017-Jul-21 19:01N 59°20' E 018°05'510.6
2017-Jul-21 18:31N 59°21' E 018°15'5 9.9
2017-Jul-21 18:00N 59°25' E 018°21'714.8
2017-Jul-21 17:30N 59°30' E 018°31'713.4
2017-Jul-21 17:00N 59°34' E 018°42'510.2
2017-Jul-21 16:31N 59°36' E 018°51'3 6.8
2017-Jul-21 16:01N 59°39' E 018°55'611.7
2017-Jul-21 15:31N 59°43' E 019°04'4 7.1
2017-Jul-21 15:00N 59°46' E 019°08'611.2
2017-Jul-21 14:30N 59°51' E 019°06'0 0.1
2017-Jul-21 14:00N 59°51' E 019°06'0 0.0
2017-Jul-21 13:31N 59°51' E 019°06'0 0.0
2017-Jul-21 13:00N 59°51' E 019°06'1 2.8
2017-Jul-21 12:31N 59°50' E 019°05'611.7
2017-Jul-21 12:00N 59°45' E 019°10'611.6
2017-Jul-21 11:31N 59°41' E 019°01'5 9.3
2017-Jul-21 11:00N 59°38' E 018°54'3 6.8
2017-Jul-21 10:30N 59°35' E 018°50'611.6
2017-Jul-21 10:00N 59°34' E 018°39'612.6
2017-Jul-21 09:29N 59°30' E 018°29'713.8
2017-Jul-21 09:00N 59°24' E 018°21'5 9.5
2017-Jul-21 08:30N 59°21' E 018°15'510.9
2017-Jul-21 08:00N 59°20' E 018°04'1 1.4
2017-Jul-21 07:30N 59°19' E 018°05'713.1
2017-Jul-21 07:01N 59°22' E 018°17'5 8.8
2017-Jul-21 06:30N 59°26' E 018°22'815.2
2017-Jul-21 05:59N 59°31' E 018°33'511.2
2017-Jul-21 05:30N 59°34' E 018°43'510.8
2017-Jul-21 05:00N 59°36' E 018°52'3 5.6
2017-Jul-21 04:24N 59°39' E 018°56'0 0.0
2017-Jul-21 04:00N 59°39' E 018°56'0 0.0
2017-Jul-21 03:29N 59°39' E 018°56'0 0.0
2017-Jul-21 02:59N 59°39' E 018°56'0 0.0
2017-Jul-21 02:30N 59°39' E 018°56'0 0.0
2017-Jul-21 02:01N 59°39' E 018°56'0 0.0
2017-Jul-21 01:31N 59°39' E 018°56'0 0.0
2017-Jul-21 01:01N 59°39' E 018°56'0 0.0
2017-Jul-21 00:31N 59°39' E 018°56'0 0.0
2017-Jul-21 00:01N 59°39' E 018°56'0 0.0
2017-Jul-20 23:30N 59°39' E 018°56'0 0.0
2017-Jul-20 23:00N 59°39' E 018°56'0 0.0
2017-Jul-20 22:31N 59°39' E 018°56'0 0.0
2017-Jul-20 22:01N 59°39' E 018°56'0 0.0
2017-Jul-20 21:31N 59°39' E 018°56'1 2.1
2017-Jul-20 21:00N 59°39' E 018°58'714.4
2017-Jul-20 20:31N 59°36' E 019°10'4 7.1
2017-Jul-20 20:00N 59°35' E 019°03'510.0
2017-Jul-20 19:31N 59°39' E 018°58'3 5.8
2017-Jul-20 19:01N 59°38' E 018°54'3 5.6
2017-Jul-20 18:30N 59°35' E 018°51'611.1
2017-Jul-20 18:01N 59°34' E 018°40'713.3
2017-Jul-20 17:30N 59°30' E 018°30'713.7
2017-Jul-20 17:00N 59°24' E 018°22'5 9.9
2017-Jul-20 16:31N 59°21' E 018°15'510.7
2017-Jul-20 16:00N 59°20' E 018°05'0 0.1
2017-Jul-20 15:30N 59°20' E 018°05'5 9.0
2017-Jul-20 15:00N 59°21' E 018°13'1010.3
2017-Jul-20 14:00N 59°28' E 018°26'712.8
2017-Jul-20 13:26N 59°33' E 018°37'818.9
2017-Jul-20 13:00N 59°38' E 018°51'3 6.3
2017-Jul-20 12:30N 59°39' E 018°56'3 5.7
2017-Jul-20 12:00N 59°37' E 019°00'510.6
2017-Jul-20 11:30N 59°36' E 019°10'0 0.1
2017-Jul-20 11:00N 59°36' E 019°10'0 0.0
2017-Jul-20 10:30N 59°36' E 019°10'0 0.9
2017-Jul-20 10:01N 59°36' E 019°11'510.8
2017-Jul-20 09:31N 59°38' E 019°00'3 5.2
2017-Jul-20 09:01N 59°39' E 018°56'4 8.1
2017-Jul-20 08:30N 59°38' E 018°49'713.6
2017-Jul-20 08:00N 59°34' E 018°38'610.9
2017-Jul-20 07:30N 59°30' E 018°30'714.0
2017-Jul-20 07:00N 59°24' E 018°21'510.0
2017-Jul-20 06:30N 59°21' E 018°15'510.7
2017-Jul-20 06:01N 59°20' E 018°04'0 0.1
2017-Jul-20 05:29N 59°20' E 018°05'0 0.0
2017-Jul-20 04:57N 59°20' E 018°05'0 0.0
2017-Jul-20 04:28N 59°20' E 018°05'0 0.0
2017-Jul-20 04:00N 59°20' E 018°05'0 0.0
2017-Jul-20 03:30N 59°20' E 018°05'0 0.0
2017-Jul-20 03:00N 59°20' E 018°05'0 0.0
2017-Jul-20 02:30N 59°20' E 018°05'0 0.0
2017-Jul-20 02:00N 59°20' E 018°05'0 0.0
2017-Jul-20 01:30N 59°20' E 018°05'0 0.0
2017-Jul-20 01:00N 59°20' E 018°05'0 0.0
2017-Jul-20 00:30N 59°20' E 018°05'0 0.0
2017-Jul-20 00:00N 59°20' E 018°05'0 0.0
2017-Jul-19 23:30N 59°20' E 018°05'0 0.0
2017-Jul-19 23:00N 59°20' E 018°05'0 0.0
2017-Jul-19 22:30N 59°20' E 018°05'0 0.0
2017-Jul-19 22:00N 59°20' E 018°05'0 0.0
2017-Jul-19 21:30N 59°20' E 018°05'0 0.0
2017-Jul-19 20:58N 59°20' E 018°05'0 0.0
2017-Jul-19 20:29N 59°20' E 018°05'0 0.0
2017-Jul-19 20:00N 59°20' E 018°05'0 0.0
2017-Jul-19 19:30N 59°20' E 018°05'1 1.5
2017-Jul-19 19:01N 59°19' E 018°06'612.2
2017-Jul-19 18:30N 59°22' E 018°16'5 9.4
2017-Jul-19 18:01N 59°26' E 018°22'815.3
2017-Jul-19 17:29N 59°31' E 018°33'511.2
2017-Jul-19 17:00N 59°34' E 018°43'5 9.6
2017-Jul-19 16:30N 59°36' E 018°51'3 6.6
2017-Jul-19 16:00N 59°38' E 018°55'611.9
2017-Jul-19 15:30N 59°42' E 019°04'4 7.6
2017-Jul-19 15:00N 59°45' E 019°09'611.7
2017-Jul-19 14:30N 59°51' E 019°06'0 0.0
2017-Jul-19 14:00N 59°51' E 019°06'0 0.0
2017-Jul-19 13:30N 59°51' E 019°06'0 0.0
2017-Jul-19 13:00N 59°51' E 019°06'1 2.5
2017-Jul-19 12:30N 59°50' E 019°05'510.8
2017-Jul-19 12:01N 59°45' E 019°09'510.5
2017-Jul-19 11:31N 59°42' E 019°01'510.0
2017-Jul-19 11:01N 59°38' E 018°54'4 8.1
2017-Jul-19 10:30N 59°35' E 018°50'1512.4
2017-Jul-19 09:17N 59°27' E 018°25'310.8
2017-Jul-19 09:00N 59°24' E 018°21'5 9.3
2017-Jul-19 08:30N 59°21' E 018°15'510.6
2017-Jul-19 08:00N 59°20' E 018°05'1 2.3
2017-Jul-19 07:30N 59°19' E 018°06'713.4
2017-Jul-19 07:00N 59°23' E 018°17'4 7.3
2017-Jul-19 06:30N 59°26' E 018°22'816.3
2017-Jul-19 06:00N 59°31' E 018°33'714.3
2017-Jul-19 05:31N 59°34' E 018°46'4 8.9
2017-Jul-19 05:00N 59°37' E 018°53'3 5.2
2017-Jul-19 04:30N 59°39' E 018°56'0 0.0
2017-Jul-19 04:00N 59°39' E 018°56'0 0.0
2017-Jul-19 03:30N 59°39' E 018°56'0 0.0
2017-Jul-19 03:01N 59°39' E 018°56'0 0.0
2017-Jul-19 02:30N 59°39' E 018°56'0 0.0
2017-Jul-19 02:00N 59°39' E 018°56'0 0.0
2017-Jul-19 01:29N 59°39' E 018°56'0 0.0
2017-Jul-19 01:00N 59°39' E 018°56'0 0.0
2017-Jul-19 00:30N 59°39' E 018°56'0 0.0
2017-Jul-19 00:01N 59°39' E 018°56'0 0.0
2017-Jul-18 23:30N 59°39' E 018°56'0 0.0
2017-Jul-18 23:01N 59°39' E 018°56'0 0.0
2017-Jul-18 22:31N 59°39' E 018°56'0 0.0
2017-Jul-18 22:01N 59°39' E 018°56'0 0.0
2017-Jul-18 21:31N 59°39' E 018°56'1 1.6
2017-Jul-18 21:01N 59°40' E 018°57'815.2
2017-Jul-18 20:31N 59°36' E 019°10'5 9.3
2017-Jul-18 20:00N 59°36' E 019°01'5 9.4
2017-Jul-18 19:31N 59°41' E 019°01'4 8.4
2017-Jul-18 19:00N 59°38' E 018°55'4 8.1
2017-Jul-18 18:30N 59°35' E 018°50'510.2
2017-Jul-18 18:00N 59°34' E 018°40'914.2
2017-Jul-18 17:23N 59°28' E 018°28'511.8
2017-Jul-18 17:00N 59°25' E 018°22'510.0
2017-Jul-18 16:30N 59°21' E 018°15'510.8
2017-Jul-18 16:01N 59°20' E 018°05'0 0.1
2017-Jul-18 15:30N 59°20' E 018°05'510.0
2017-Jul-18 15:00N 59°21' E 018°14'1811.5
2017-Jul-18 13:28N 59°34' E 018°38'817.8
2017-Jul-18 13:01N 59°38' E 018°52'2 4.9
2017-Jul-18 12:30N 59°39' E 018°56'3 5.3
2017-Jul-18 12:01N 59°37' E 018°60'510.9
2017-Jul-18 11:31N 59°36' E 019°10'0 0.0
2017-Jul-18 11:01N 59°36' E 019°10'0 0.0
2017-Jul-18 10:31N 59°36' E 019°10'0 0.9
2017-Jul-18 10:00N 59°36' E 019°10'5 9.6
2017-Jul-18 09:30N 59°38' E 019°01'3 5.5
2017-Jul-18 09:00N 59°39' E 018°57'4 7.9
2017-Jul-18 08:31N 59°38' E 018°50'713.7
2017-Jul-18 08:00N 59°34' E 018°38'812.9
2017-Jul-18 07:22N 59°28' E 018°28'512.6
2017-Jul-18 07:00N 59°24' E 018°21'5 9.8
2017-Jul-18 06:30N 59°21' E 018°15'510.6
2017-Jul-18 06:00N 59°20' E 018°05'0 0.0
2017-Jul-18 05:31N 59°20' E 018°05'0 0.0
2017-Jul-18 05:00N 59°20' E 018°05'0 0.0
2017-Jul-18 04:30N 59°20' E 018°05'0 0.0
2017-Jul-18 04:00N 59°20' E 018°05'0 0.0
2017-Jul-18 03:31N 59°20' E 018°05'0 0.0
2017-Jul-18 03:00N 59°20' E 018°05'0 0.0
2017-Jul-18 02:30N 59°20' E 018°05'0 0.0
2017-Jul-18 02:01N 59°20' E 018°05'0 0.0
2017-Jul-18 01:30N 59°20' E 018°05'0 0.0
2017-Jul-18 01:00N 59°20' E 018°05'0 0.0
2017-Jul-18 00:31N 59°20' E 018°05'0 0.0
2017-Jul-18 00:01N 59°20' E 018°05'0 0.0
2017-Jul-17 23:31N 59°20' E 018°05'0 0.0
2017-Jul-17 23:01N 59°20' E 018°05'0 0.0
2017-Jul-17 22:30N 59°20' E 018°05'0 0.0
2017-Jul-17 22:00N 59°20' E 018°05'0 0.0
2017-Jul-17 21:31N 59°20' E 018°05'0 0.0
2017-Jul-17 21:01N 59°20' E 018°05'0 0.0
2017-Jul-17 20:31N 59°20' E 018°05'0 0.0
2017-Jul-17 20:01N 59°20' E 018°05'0 0.0
2017-Jul-17 19:31N 59°20' E 018°05'0 0.0
2017-Jul-17 19:01N 59°20' E 018°05'5 9.4
2017-Jul-17 18:30N 59°21' E 018°14'611.2
2017-Jul-17 18:00N 59°25' E 018°21'713.6
2017-Jul-17 17:30N 59°30' E 018°30'713.5
2017-Jul-17 17:00N 59°34' E 018°41'611.1
2017-Jul-17 16:30N 59°36' E 018°51'3 6.7
2017-Jul-17 16:00N 59°38' E 018°55'612.4
2017-Jul-17 15:31N 59°43' E 019°04'3 7.0
2017-Jul-17 15:01N 59°46' E 019°07'611.0
2017-Jul-17 14:30N 59°51' E 019°06'0 0.0
2017-Jul-17 14:01N 59°51' E 019°06'0 0.0
2017-Jul-17 13:31N 59°51' E 019°06'0 0.0
2017-Jul-17 13:00N 59°51' E 019°06'2 3.4
2017-Jul-17 12:30N 59°50' E 019°05'510.6
2017-Jul-17 12:00N 59°45' E 019°10'611.4
2017-Jul-17 11:31N 59°41' E 019°01'5 9.5
2017-Jul-17 11:00N 59°38' E 018°54'4 7.3
2017-Jul-17 10:31N 59°35' E 018°50'510.3
2017-Jul-17 10:00N 59°34' E 018°40'1113.9
2017-Jul-17 09:14N 59°27' E 018°25'311.6
2017-Jul-17 08:59N 59°24' E 018°21'5 9.8
2017-Jul-17 08:30N 59°21' E 018°15'510.7
2017-Jul-17 08:01N 59°20' E 018°04'1 2.5
2017-Jul-17 07:30N 59°19' E 018°07'713.7
2017-Jul-17 07:00N 59°23' E 018°18'3 6.6
2017-Jul-17 06:30N 59°26' E 018°22'1215.3
2017-Jul-17 05:44N 59°34' E 018°38'312.6
2017-Jul-17 05:30N 59°34' E 018°44'611.1
2017-Jul-17 05:00N 59°37' E 018°53'3 5.3
2017-Jul-17 04:30N 59°39' E 018°56'0 0.0
2017-Jul-17 04:00N 59°39' E 018°56'0 0.0
2017-Jul-17 03:30N 59°39' E 018°56'0 0.0
2017-Jul-17 03:00N 59°39' E 018°56'0 0.0
2017-Jul-17 02:30N 59°39' E 018°56'0 0.0
2017-Jul-17 02:00N 59°39' E 018°56'0 0.0
2017-Jul-17 01:30N 59°39' E 018°56'0 0.0
2017-Jul-17 01:00N 59°39' E 018°56'0 0.0
2017-Jul-17 00:30N 59°39' E 018°56'0 0.0
2017-Jul-17 00:00N 59°39' E 018°56'0 0.0
2017-Jul-16 23:30N 59°39' E 018°56'0 0.0
2017-Jul-16 23:00N 59°39' E 018°56'0 0.0
2017-Jul-16 22:30N 59°39' E 018°56'0 0.0
2017-Jul-16 22:00N 59°39' E 018°56'1 1.8
2017-Jul-16 21:31N 59°38' E 018°55'5 9.6
2017-Jul-16 21:01N 59°35' E 018°49'916.0
2017-Jul-16 20:27N 59°31' E 018°33'817.1
2017-Jul-16 20:00N 59°26' E 018°22'5 9.8
2017-Jul-16 19:30N 59°22' E 018°16'612.6
2017-Jul-16 19:01N 59°20' E 018°05'0 0.5
2017-Jul-16 18:30N 59°19' E 018°05'510.3
2017-Jul-16 18:00N 59°21' E 018°14'612.1
2017-Jul-16 17:30N 59°26' E 018°22'1018.1
2017-Jul-16 16:59N 59°33' E 018°35'612.7
2017-Jul-16 16:31N 59°34' E 018°46'4 8.5
2017-Jul-16 16:01N 59°37' E 018°52'5 9.3
2017-Jul-16 15:30N 59°40' E 018°59'612.3
2017-Jul-16 15:01N 59°44' E 019°09'510.1
2017-Jul-16 14:31N 59°48' E 019°06'3 5.2
2017-Jul-16 14:00N 59°51' E 019°06'0 0.0
2017-Jul-16 13:31N 59°51' E 019°06'0 0.0
2017-Jul-16 13:00N 59°51' E 019°06'0 0.0
2017-Jul-16 12:30N 59°51' E 019°06'1 2.1
2017-Jul-16 12:00N 59°50' E 019°05'612.4
2017-Jul-16 11:31N 59°45' E 019°10'611.4
2017-Jul-16 11:00N 59°39' E 019°07'4 7.1
2017-Jul-16 10:30N 59°36' E 019°10'611.0
2017-Jul-16 10:01N 59°38' E 019°00'3 5.3
2017-Jul-16 09:30N 59°38' E 018°55'4 7.1
2017-Jul-16 09:00N 59°35' E 018°51'510.3
2017-Jul-16 08:31N 59°34' E 018°41'713.7
2017-Jul-16 08:00N 59°30' E 018°30'714.6
2017-Jul-16 07:31N 59°24' E 018°21'5 9.4
2017-Jul-16 07:00N 59°21' E 018°14'510.2
2017-Jul-16 06:30N 59°20' E 018°05'0 0.0
2017-Jul-16 06:00N 59°20' E 018°05'0 0.0
2017-Jul-16 05:30N 59°20' E 018°05'0 0.0
2017-Jul-16 05:00N 59°20' E 018°05'0 0.0
2017-Jul-16 04:30N 59°20' E 018°05'0 0.0
2017-Jul-16 02:12N 59°20' E 018°05'0 0.0
2017-Jul-16 01:56N 59°20' E 018°05'0 0.0
2017-Jul-16 01:30N 59°20' E 018°05'0 0.0
2017-Jul-16 00:59N 59°20' E 018°05'0 0.0
2017-Jul-16 00:30N 59°20' E 018°05'0 0.0
2017-Jul-15 23:58N 59°20' E 018°05'0 0.0
2017-Jul-15 23:30N 59°20' E 018°05'0 0.0
2017-Jul-15 22:56N 59°20' E 018°05'0 0.0
2017-Jul-15 22:29N 59°20' E 018°05'0 0.0
2017-Jul-15 22:00N 59°20' E 018°05'0 0.0
2017-Jul-15 21:29N 59°20' E 018°05'0 0.0
2017-Jul-15 21:01N 59°20' E 018°05'0 0.0
2017-Jul-15 20:29N 59°20' E 018°05'0 0.0
2017-Jul-15 20:01N 59°20' E 018°05'0 0.0
2017-Jul-15 19:10N 59°20' E 018°05'0 0.0
2017-Jul-15 18:55N 59°20' E 018°05'0 1.1
2017-Jul-15 18:31N 59°19' E 018°05'713.0
2017-Jul-15 18:00N 59°22' E 018°17'510.7
2017-Jul-15 17:30N 59°26' E 018°23'816.3
2017-Jul-15 17:00N 59°32' E 018°34'612.9
2017-Jul-15 16:31N 59°34' E 018°46'4 8.4
2017-Jul-15 16:01N 59°37' E 018°52'4 7.1
2017-Jul-15 15:31N 59°40' E 018°57'3 5.4
2017-Jul-15 15:00N 59°37' E 019°00'5 5.2
2017-Jul-15 14:00N 59°39' E 019°10'714.2
2017-Jul-15 13:31N 59°46' E 019°07'5 9.8
2017-Jul-15 13:00N 59°51' E 019°06'0 0.0
2017-Jul-15 12:30N 59°51' E 019°06'0 0.0
2017-Jul-15 12:00N 59°51' E 019°06'0 0.0
2017-Jul-15 11:30N 59°51' E 019°06'1 1.8
2017-Jul-15 11:01N 59°50' E 019°05'611.1
2017-Jul-15 10:31N 59°45' E 019°09'510.2
2017-Jul-15 10:00N 59°42' E 019°02'5 9.9
2017-Jul-15 09:30N 59°38' E 018°55'4 7.9
2017-Jul-15 09:00N 59°35' E 018°50'510.9
2017-Jul-15 08:30N 59°34' E 018°40'611.6
2017-Jul-15 07:57N 59°30' E 018°30'614.5
2017-Jul-15 07:30N 59°25' E 018°22'510.5
2017-Jul-15 07:00N 59°21' E 018°14'510.5
2017-Jul-15 06:30N 59°20' E 018°04'0 0.1
2017-Jul-15 06:00N 59°20' E 018°05'0 0.0
2017-Jul-15 05:30N 59°20' E 018°05'0 0.0
2017-Jul-15 05:00N 59°20' E 018°05'0 0.0
2017-Jul-15 04:30N 59°20' E 018°05'0 0.0
2017-Jul-15 04:01N 59°20' E 018°05'0 0.0
2017-Jul-15 03:30N 59°20' E 018°05'0 0.0
2017-Jul-15 03:00N 59°20' E 018°05'0 0.0
2017-Jul-15 02:30N 59°20' E 018°05'0 0.0
2017-Jul-15 02:00N 59°20' E 018°05'0 0.0
2017-Jul-15 01:30N 59°20' E 018°05'0 0.0
2017-Jul-15 01:00N 59°20' E 018°05'0 0.0
2017-Jul-15 00:31N 59°20' E 018°05'0 0.0
2017-Jul-15 00:00N 59°20' E 018°05'0 0.0
2017-Jul-14 23:30N 59°20' E 018°05'0 0.0
2017-Jul-14 23:00N 59°20' E 018°05'0 0.0
2017-Jul-14 22:30N 59°20' E 018°05'0 0.0
2017-Jul-14 22:00N 59°20' E 018°05'0 0.0
2017-Jul-14 21:30N 59°20' E 018°05'0 0.0
2017-Jul-14 21:00N 59°20' E 018°05'0 0.0
2017-Jul-14 20:30N 59°20' E 018°05'0 0.0
2017-Jul-14 20:00N 59°20' E 018°05'0 0.0
2017-Jul-14 19:30N 59°20' E 018°05'0 0.0
2017-Jul-14 19:00N 59°20' E 018°05'4 8.9
2017-Jul-14 18:30N 59°20' E 018°13'611.6
2017-Jul-14 18:00N 59°25' E 018°22'713.6
2017-Jul-14 17:30N 59°30' E 018°30'713.9
2017-Jul-14 17:00N 59°34' E 018°40'510.1
2017-Jul-14 16:31N 59°35' E 018°50'4 8.4
2017-Jul-14 16:00N 59°38' E 018°55'611.9
2017-Jul-14 15:30N 59°42' E 019°04'4 7.5
2017-Jul-14 15:00N 59°45' E 019°08'611.6
2017-Jul-14 14:31N 59°51' E 019°06'0 0.1
2017-Jul-14 14:01N 59°51' E 019°06'0 0.0
2017-Jul-14 13:31N 59°51' E 019°06'0 0.0
2017-Jul-14 13:00N 59°51' E 019°06'1 1.6
2017-Jul-14 12:31N 59°51' E 019°05'611.0
2017-Jul-14 12:00N 59°45' E 019°09'4 8.5
2017-Jul-14 11:31N 59°42' E 019°03'612.4
2017-Jul-14 11:00N 59°38' E 018°54'4 7.2
2017-Jul-14 10:30N 59°35' E 018°50'611.2
2017-Jul-14 10:00N 59°34' E 018°39'711.7
2017-Jul-14 09:26N 59°30' E 018°29'715.5
2017-Jul-14 09:00N 59°24' E 018°21'5 9.8
2017-Jul-14 08:30N 59°21' E 018°15'510.8
2017-Jul-14 08:01N 59°20' E 018°04'1 1.5
2017-Jul-14 07:30N 59°19' E 018°06'714.1
2017-Jul-14 07:00N 59°23' E 018°17'3 6.6
2017-Jul-14 06:30N 59°25' E 018°21'713.9
2017-Jul-14 06:01N 59°30' E 018°31'712.8
2017-Jul-14 05:28N 59°34' E 018°43'511.6
2017-Jul-14 05:01N 59°36' E 018°52'4 7.0
2017-Jul-14 04:31N 59°39' E 018°56'815.4
2017-Jul-14 04:00N 59°36' E 019°10'0 0.9
2017-Jul-14 03:30N 59°36' E 019°10'0 0.0
2017-Jul-14 03:01N 59°36' E 019°10'0 0.0
2017-Jul-14 02:30N 59°36' E 019°10'0 0.0
2017-Jul-14 02:00N 59°36' E 019°10'0 0.0
2017-Jul-14 01:30N 59°36' E 019°10'0 0.0
2017-Jul-14 01:00N 59°36' E 019°10'0 0.0
2017-Jul-14 00:30N 59°36' E 019°10'0 0.0
2017-Jul-14 00:00N 59°36' E 019°10'0 0.0
2017-Jul-13 23:30N 59°36' E 019°10'0 0.0
2017-Jul-13 23:00N 59°36' E 019°10'0 0.0
2017-Jul-13 22:30N 59°36' E 019°10'0 0.0
2017-Jul-13 22:00N 59°36' E 019°10'0 0.0
2017-Jul-13 21:30N 59°36' E 019°10'0 0.0
2017-Jul-13 21:00N 59°36' E 019°10'0 0.0
2017-Jul-13 20:30N 59°36' E 019°10'3 6.1
2017-Jul-13 20:01N 59°35' E 019°05'510.6
2017-Jul-13 19:31N 59°39' E 018°59'3 5.3
2017-Jul-13 19:00N 59°38' E 018°54'3 6.8
2017-Jul-13 18:30N 59°35' E 018°50'612.5
2017-Jul-13 18:00N 59°34' E 018°38'812.7
2017-Jul-13 17:22N 59°28' E 018°28'411.8
2017-Jul-13 17:00N 59°25' E 018°22'510.0
2017-Jul-13 16:30N 59°21' E 018°14'510.5
2017-Jul-13 16:01N 59°20' E 018°04'0 0.1
2017-Jul-13 15:30N 59°20' E 018°05'4 7.9
2017-Jul-13 15:00N 59°20' E 018°12'612.3
2017-Jul-13 14:30N 59°24' E 018°21'4 7.9
2017-Jul-13 14:01N 59°27' E 018°26'814.2
2017-Jul-13 13:25N 59°33' E 018°37'615.5
2017-Jul-13 13:00N 59°37' E 018°48'511.0
2017-Jul-13 12:31N 59°40' E 018°57'3 5.6
2017-Jul-13 12:00N 59°38' E 019°00'510.5
2017-Jul-13 11:30N 59°36' E 019°10'0 0.0
2017-Jul-13 11:00N 59°36' E 019°10'0 0.0
2017-Jul-13 10:30N 59°36' E 019°10'0 0.0
2017-Jul-13 10:00N 59°36' E 019°10'510.6
2017-Jul-13 09:30N 59°37' E 019°00'3 5.7
2017-Jul-13 09:00N 59°39' E 018°56'3 5.1
2017-Jul-13 08:31N 59°38' E 018°52'1213.8
2017-Jul-13 07:39N 59°31' E 018°33'414.8
2017-Jul-13 07:22N 59°28' E 018°28'513.4
2017-Jul-13 07:00N 59°24' E 018°21'5 9.4
2017-Jul-13 06:30N 59°21' E 018°15'510.6
2017-Jul-13 06:00N 59°20' E 018°05'0 0.0
2017-Jul-13 05:30N 59°20' E 018°05'0 0.0
2017-Jul-13 05:00N 59°20' E 018°05'0 0.0
2017-Jul-13 04:30N 59°20' E 018°05'0 0.0
2017-Jul-13 04:00N 59°20' E 018°05'0 0.0
2017-Jul-13 03:30N 59°20' E 018°05'0 0.0
2017-Jul-13 03:00N 59°20' E 018°05'0 0.0
2017-Jul-13 02:30N 59°20' E 018°05'  
Track history (hours):
 
Tides and Currents Weather Stations Pressure Air Temp Water Temp Dewpoint Dewpoint Depression Visibility Wind Speed Wind Dir Waves Ship Positions

Sjobris

Last reported at 2017-Jul-23 02:30 UTC. Time now 2017-Jul-23 02:42 UTC.
Position N 59°20' E 018°05'.

Length 38 m.

Type: Passenger vessel. MMSI: 265522700.

Date/timePositionNaut miles runAvg speedWind from/ knotsBaromVisibWave heightAir tempDewpointWater temp
2017-Jul-23 02:30N 59°20' E 018°05'0 0.0
2017-Jul-23 02:00N 59°20' E 018°05'0 0.0
2017-Jul-23 01:30N 59°20' E 018°05'0 0.0
2017-Jul-23 01:00N 59°20' E 018°05'0 0.0
2017-Jul-23 00:30N 59°20' E 018°05'0 0.0
2017-Jul-23 00:00N 59°20' E 018°05'0 0.0
2017-Jul-22 23:30N 59°20' E 018°05'0 0.0
2017-Jul-22 23:00N 59°20' E 018°05'0 0.0
2017-Jul-22 22:30N 59°20' E 018°05'0 0.0
2017-Jul-22 22:00N 59°20' E 018°05'0 0.0
2017-Jul-22 21:30N 59°20' E 018°05'0 0.0
2017-Jul-22 21:00N 59°20' E 018°05'0 0.0
2017-Jul-22 20:30N 59°20' E 018°05'0 0.0
2017-Jul-22 20:00N 59°20' E 018°05'0 0.0
2017-Jul-22 19:30N 59°20' E 018°05'0 0.0
2017-Jul-22 19:00N 59°20' E 018°05'3 6.6
2017-Jul-22 18:30N 59°20' E 018°11'713.3
2017-Jul-22 18:00N 59°24' E 018°21'611.3
2017-Jul-22 17:30N 59°28' E 018°29'713.8
2017-Jul-22 17:00N 59°33' E 018°37'510.9
2017-Jul-22 16:30N 59°35' E 018°48'4 7.8
2017-Jul-22 16:00N 59°37' E 018°53'5 9.3
2017-Jul-22 15:30N 59°41' E 018°59'3 6.5
2017-Jul-22 15:00N 59°38' E 019°01'6 6.3
2017-Jul-22 14:01N 59°42' E 019°11'713.1
2017-Jul-22 13:31N 59°48' E 019°07'3 6.7
2017-Jul-22 13:00N 59°51' E 019°06'0 0.0
2017-Jul-22 12:30N 59°51' E 019°06'0 0.0
2017-Jul-22 12:00N 59°51' E 019°06'0 0.0
2017-Jul-22 11:30N 59°51' E 019°06'1 2.2
2017-Jul-22 11:00N 59°50' E 019°05'612.4
2017-Jul-22 10:30N 59°45' E 019°10'613.0
2017-Jul-22 10:00N 59°41' E 018°60'5 9.2
2017-Jul-22 09:30N 59°37' E 018°54'3 5.7
2017-Jul-22 09:01N 59°35' E 018°50'611.0
2017-Jul-22 08:30N 59°34' E 018°39'612.4
2017-Jul-22 08:00N 59°30' E 018°30'713.7
2017-Jul-22 07:30N 59°25' E 018°21'510.2
2017-Jul-22 07:00N 59°21' E 018°15'510.6
2017-Jul-22 06:31N 59°20' E 018°05'0 0.0
2017-Jul-22 06:00N 59°20' E 018°05'0 0.0
2017-Jul-22 05:31N 59°20' E 018°05'0 0.0
2017-Jul-22 05:01N 59°20' E 018°05'0 0.0
2017-Jul-22 04:30N 59°20' E 018°05'0 0.0
2017-Jul-22 04:00N 59°20' E 018°05'0 0.0
2017-Jul-22 03:30N 59°20' E 018°05'0 0.0
2017-Jul-22 03:00N 59°20' E 018°05'0 0.0
2017-Jul-22 02:31N 59°20' E 018°05'0 0.0
2017-Jul-22 02:01N 59°20' E 018°05'0 0.0
2017-Jul-22 01:30N 59°20' E 018°05'0 0.0
2017-Jul-22 01:00N 59°20' E 018°05'0 0.0
2017-Jul-22 00:30N 59°20' E 018°05'0 0.0
2017-Jul-22 00:00N 59°20' E 018°05'0 0.0
2017-Jul-21 23:30N 59°20' E 018°05'0 0.0
2017-Jul-21 23:00N 59°20' E 018°05'0 0.0
2017-Jul-21 22:31N 59°20' E 018°05'0 0.0
2017-Jul-21 22:01N 59°20' E 018°05'0 0.0
2017-Jul-21 21:31N 59°20' E 018°05'0 0.0
2017-Jul-21 21:00N 59°20' E 018°05'0 0.0
2017-Jul-21 20:31N 59°20' E 018°05'0 0.0
2017-Jul-21 20:00N 59°20' E 018°05'0 0.0
2017-Jul-21 19:30N 59°20' E 018°05'0 0.1
2017-Jul-21 19:01N 59°20' E 018°05'510.6
2017-Jul-21 18:31N 59°21' E 018°15'5 9.9
2017-Jul-21 18:00N 59°25' E 018°21'714.8
2017-Jul-21 17:30N 59°30' E 018°31'713.4
2017-Jul-21 17:00N 59°34' E 018°42'510.2
2017-Jul-21 16:31N 59°36' E 018°51'3 6.8
2017-Jul-21 16:01N 59°39' E 018°55'611.7
2017-Jul-21 15:31N 59°43' E 019°04'4 7.1
2017-Jul-21 15:00N 59°46' E 019°08'611.2
2017-Jul-21 14:30N 59°51' E 019°06'0 0.1
2017-Jul-21 14:00N 59°51' E 019°06'0 0.0
2017-Jul-21 13:31N 59°51' E 019°06'0 0.0
2017-Jul-21 13:00N 59°51' E 019°06'1 2.8
2017-Jul-21 12:31N 59°50' E 019°05'611.7
2017-Jul-21 12:00N 59°45' E 019°10'611.6
2017-Jul-21 11:31N 59°41' E 019°01'5 9.3
2017-Jul-21 11:00N 59°38' E 018°54'3 6.8
2017-Jul-21 10:30N 59°35' E 018°50'611.6
2017-Jul-21 10:00N 59°34' E 018°39'612.6
2017-Jul-21 09:29N 59°30' E 018°29'713.8
2017-Jul-21 09:00N 59°24' E 018°21'5 9.5
2017-Jul-21 08:30N 59°21' E 018°15'510.9
2017-Jul-21 08:00N 59°20' E 018°04'1 1.4
2017-Jul-21 07:30N 59°19' E 018°05'713.1
2017-Jul-21 07:01N 59°22' E 018°17'5 8.8
2017-Jul-21 06:30N 59°26' E 018°22'815.2
2017-Jul-21 05:59N 59°31' E 018°33'511.2
2017-Jul-21 05:30N 59°34' E 018°43'510.8
2017-Jul-21 05:00N 59°36' E 018°52'3 5.6
2017-Jul-21 04:24N 59°39' E 018°56'0 0.0
2017-Jul-21 04:00N 59°39' E 018°56'0 0.0
2017-Jul-21 03:29N 59°39' E 018°56'0 0.0
2017-Jul-21 02:59N 59°39' E 018°56'0 0.0
2017-Jul-21 02:30N 59°39' E 018°56'0 0.0
2017-Jul-21 02:01N 59°39' E 018°56'0 0.0
2017-Jul-21 01:31N 59°39' E 018°56'0 0.0
2017-Jul-21 01:01N 59°39' E 018°56'0 0.0
2017-Jul-21 00:31N 59°39' E 018°56'0 0.0
2017-Jul-21 00:01N 59°39' E 018°56'0 0.0
2017-Jul-20 23:30N 59°39' E 018°56'0 0.0
2017-Jul-20 23:00N 59°39' E 018°56'0 0.0
2017-Jul-20 22:31N 59°39' E 018°56'0 0.0
2017-Jul-20 22:01N 59°39' E 018°56'0 0.0
2017-Jul-20 21:31N 59°39' E 018°56'1 2.1
2017-Jul-20 21:00N 59°39' E 018°58'714.4
2017-Jul-20 20:31N 59°36' E 019°10'4 7.1
2017-Jul-20 20:00N 59°35' E 019°03'510.0
2017-Jul-20 19:31N 59°39' E 018°58'3 5.8
2017-Jul-20 19:01N 59°38' E 018°54'3 5.6
2017-Jul-20 18:30N 59°35' E 018°51'611.1
2017-Jul-20 18:01N 59°34' E 018°40'713.3
2017-Jul-20 17:30N 59°30' E 018°30'713.7
2017-Jul-20 17:00N 59°24' E 018°22'5 9.9
2017-Jul-20 16:31N 59°21' E 018°15'510.7
2017-Jul-20 16:00N 59°20' E 018°05'0 0.1
2017-Jul-20 15:30N 59°20' E 018°05'5 9.0
2017-Jul-20 15:00N 59°21' E 018°13'1010.3
2017-Jul-20 14:00N 59°28' E 018°26'712.8
2017-Jul-20 13:26N 59°33' E 018°37'818.9
2017-Jul-20 13:00N 59°38' E 018°51'3 6.3
2017-Jul-20 12:30N 59°39' E 018°56'3 5.7
2017-Jul-20 12:00N 59°37' E 019°00'510.6
2017-Jul-20 11:30N 59°36' E 019°10'0 0.1
2017-Jul-20 11:00N 59°36' E 019°10'0 0.0
2017-Jul-20 10:30N 59°36' E 019°10'0 0.9
2017-Jul-20 10:01N 59°36' E 019°11'510.8
2017-Jul-20 09:31N 59°38' E 019°00'3 5.2
2017-Jul-20 09:01N 59°39' E 018°56'4 8.1
2017-Jul-20 08:30N 59°38' E 018°49'713.6
2017-Jul-20 08:00N 59°34' E 018°38'610.9
2017-Jul-20 07:30N 59°30' E 018°30'714.0
2017-Jul-20 07:00N 59°24' E 018°21'510.0
2017-Jul-20 06:30N 59°21' E 018°15'510.7
2017-Jul-20 06:01N 59°20' E 018°04'0 0.1
2017-Jul-20 05:29N 59°20' E 018°05'0 0.0
2017-Jul-20 04:57N 59°20' E 018°05'0 0.0
2017-Jul-20 04:28N 59°20' E 018°05'0 0.0
2017-Jul-20 04:00N 59°20' E 018°05'0 0.0
2017-Jul-20 03:30N 59°20' E 018°05'0 0.0
2017-Jul-20 03:00N 59°20' E 018°05'0 0.0
2017-Jul-20 02:30N 59°20' E 018°05'0 0.0
2017-Jul-20 02:00N 59°20' E 018°05'0 0.0
2017-Jul-20 01:30N 59°20' E 018°05'0 0.0
2017-Jul-20 01:00N 59°20' E 018°05'0 0.0
2017-Jul-20 00:30N 59°20' E 018°05'0 0.0
2017-Jul-20 00:00N 59°20' E 018°05'0 0.0
2017-Jul-19 23:30N 59°20' E 018°05'0 0.0
2017-Jul-19 23:00N 59°20' E 018°05'0 0.0
2017-Jul-19 22:30N 59°20' E 018°05'0 0.0
2017-Jul-19 22:00N 59°20' E 018°05'0 0.0
2017-Jul-19 21:30N 59°20' E 018°05'0 0.0
2017-Jul-19 20:58N 59°20' E 018°05'0 0.0
2017-Jul-19 20:29N 59°20' E 018°05'0 0.0
2017-Jul-19 20:00N 59°20' E 018°05'0 0.0
2017-Jul-19 19:30N 59°20' E 018°05'1 1.5
2017-Jul-19 19:01N 59°19' E 018°06'612.2
2017-Jul-19 18:30N 59°22' E 018°16'5 9.4
2017-Jul-19 18:01N 59°26' E 018°22'815.3
2017-Jul-19 17:29N 59°31' E 018°33'511.2
2017-Jul-19 17:00N 59°34' E 018°43'5 9.6
2017-Jul-19 16:30N 59°36' E 018°51'3 6.6
2017-Jul-19 16:00N 59°38' E 018°55'611.9
2017-Jul-19 15:30N 59°42' E 019°04'4 7.6
2017-Jul-19 15:00N 59°45' E 019°09'611.7
2017-Jul-19 14:30N 59°51' E 019°06'0 0.0
2017-Jul-19 14:00N 59°51' E 019°06'0 0.0
2017-Jul-19 13:30N 59°51' E 019°06'0 0.0
2017-Jul-19 13:00N 59°51' E 019°06'1 2.5
2017-Jul-19 12:30N 59°50' E 019°05'510.8
2017-Jul-19 12:01N 59°45' E 019°09'510.5
2017-Jul-19 11:31N 59°42' E 019°01'510.0
2017-Jul-19 11:01N 59°38' E 018°54'4 8.1
2017-Jul-19 10:30N 59°35' E 018°50'1512.4
2017-Jul-19 09:17N 59°27' E 018°25'310.8
2017-Jul-19 09:00N 59°24' E 018°21'5 9.3
2017-Jul-19 08:30N 59°21' E 018°15'510.6
2017-Jul-19 08:00N 59°20' E 018°05'1 2.3
2017-Jul-19 07:30N 59°19' E 018°06'713.4
2017-Jul-19 07:00N 59°23' E 018°17'4 7.3
2017-Jul-19 06:30N 59°26' E 018°22'816.3
2017-Jul-19 06:00N 59°31' E 018°33'714.3
2017-Jul-19 05:31N 59°34' E 018°46'4 8.9
2017-Jul-19 05:00N 59°37' E 018°53'3 5.2
2017-Jul-19 04:30N 59°39' E 018°56'0 0.0
2017-Jul-19 04:00N 59°39' E 018°56'0 0.0
2017-Jul-19 03:30N 59°39' E 018°56'0 0.0
2017-Jul-19 03:01N 59°39' E 018°56'0 0.0
2017-Jul-19 02:30N 59°39' E 018°56'0 0.0
2017-Jul-19 02:00N 59°39' E 018°56'0 0.0
2017-Jul-19 01:29N 59°39' E 018°56'0 0.0
2017-Jul-19 01:00N 59°39' E 018°56'0 0.0
2017-Jul-19 00:30N 59°39' E 018°56'0 0.0
2017-Jul-19 00:01N 59°39' E 018°56'0 0.0
2017-Jul-18 23:30N 59°39' E 018°56'0 0.0
2017-Jul-18 23:01N 59°39' E 018°56'0 0.0
2017-Jul-18 22:31N 59°39' E 018°56'0 0.0
2017-Jul-18 22:01N 59°39' E 018°56'0 0.0
2017-Jul-18 21:31N 59°39' E 018°56'1 1.6
2017-Jul-18 21:01N 59°40' E 018°57'815.2
2017-Jul-18 20:31N 59°36' E 019°10'5 9.3
2017-Jul-18 20:00N 59°36' E 019°01'5 9.4
2017-Jul-18 19:31N 59°41' E 019°01'4 8.4
2017-Jul-18 19:00N 59°38' E 018°55'4 8.1
2017-Jul-18 18:30N 59°35' E 018°50'510.2
2017-Jul-18 18:00N 59°34' E 018°40'914.2
2017-Jul-18 17:23N 59°28' E 018°28'511.8
2017-Jul-18 17:00N 59°25' E 018°22'510.0
2017-Jul-18 16:30N 59°21' E 018°15'510.8
2017-Jul-18 16:01N 59°20' E 018°05'0 0.1
2017-Jul-18 15:30N 59°20' E 018°05'510.0
2017-Jul-18 15:00N 59°21' E 018°14'1811.5
2017-Jul-18 13:28N 59°34' E 018°38'817.8
2017-Jul-18 13:01N 59°38' E 018°52'2 4.9
2017-Jul-18 12:30N 59°39' E 018°56'3 5.3
2017-Jul-18 12:01N 59°37' E 018°60'510.9
2017-Jul-18 11:31N 59°36' E 019°10'0 0.0
2017-Jul-18 11:01N 59°36' E 019°10'0 0.0
2017-Jul-18 10:31N 59°36' E 019°10'0 0.9
2017-Jul-18 10:00N 59°36' E 019°10'5 9.6
2017-Jul-18 09:30N 59°38' E 019°01'3 5.5
2017-Jul-18 09:00N 59°39' E 018°57'4 7.9
2017-Jul-18 08:31N 59°38' E 018°50'713.7
2017-Jul-18 08:00N 59°34' E 018°38'812.9
2017-Jul-18 07:22N 59°28' E 018°28'512.6
2017-Jul-18 07:00N 59°24' E 018°21'5 9.8
2017-Jul-18 06:30N 59°21' E 018°15'510.6
2017-Jul-18 06:00N 59°20' E 018°05'0 0.0
2017-Jul-18 05:31N 59°20' E 018°05'0 0.0
2017-Jul-18 05:00N 59°20' E 018°05'0 0.0
2017-Jul-18 04:30N 59°20' E 018°05'0 0.0
2017-Jul-18 04:00N 59°20' E 018°05'0 0.0
2017-Jul-18 03:31N 59°20' E 018°05'0 0.0
2017-Jul-18 03:00N 59°20' E 018°05'0 0.0
2017-Jul-18 02:30N 59°20' E 018°05'0 0.0
2017-Jul-18 02:01N 59°20' E 018°05'0 0.0
2017-Jul-18 01:30N 59°20' E 018°05'0 0.0
2017-Jul-18 01:00N 59°20' E 018°05'0 0.0
2017-Jul-18 00:31N 59°20' E 018°05'0 0.0
2017-Jul-18 00:01N 59°20' E 018°05'0 0.0
2017-Jul-17 23:31N 59°20' E 018°05'0 0.0
2017-Jul-17 23:01N 59°20' E 018°05'0 0.0
2017-Jul-17 22:30N 59°20' E 018°05'0 0.0
2017-Jul-17 22:00N 59°20' E 018°05'0 0.0
2017-Jul-17 21:31N 59°20' E 018°05'0 0.0
2017-Jul-17 21:01N 59°20' E 018°05'0 0.0
2017-Jul-17 20:31N 59°20' E 018°05'0 0.0
2017-Jul-17 20:01N 59°20' E 018°05'0 0.0
2017-Jul-17 19:31N 59°20' E 018°05'0 0.0
2017-Jul-17 19:01N 59°20' E 018°05'5 9.4
2017-Jul-17 18:30N 59°21' E 018°14'611.2
2017-Jul-17 18:00N 59°25' E 018°21'713.6
2017-Jul-17 17:30N 59°30' E 018°30'713.5
2017-Jul-17 17:00N 59°34' E 018°41'611.1
2017-Jul-17 16:30N 59°36' E 018°51'3 6.7
2017-Jul-17 16:00N 59°38' E 018°55'612.4
2017-Jul-17 15:31N 59°43' E 019°04'3 7.0
2017-Jul-17 15:01N 59°46' E 019°07'611.0
2017-Jul-17 14:30N 59°51' E 019°06'0 0.0
2017-Jul-17 14:01N 59°51' E 019°06'0 0.0
2017-Jul-17 13:31N 59°51' E 019°06'0 0.0
2017-Jul-17 13:00N 59°51' E 019°06'2 3.4
2017-Jul-17 12:30N 59°50' E 019°05'510.6
2017-Jul-17 12:00N 59°45' E 019°10'611.4
2017-Jul-17 11:31N 59°41' E 019°01'5 9.5
2017-Jul-17 11:00N 59°38' E 018°54'4 7.3
2017-Jul-17 10:31N 59°35' E 018°50'510.3
2017-Jul-17 10:00N 59°34' E 018°40'1113.9
2017-Jul-17 09:14N 59°27' E 018°25'311.6
2017-Jul-17 08:59N 59°24' E 018°21'5 9.8
2017-Jul-17 08:30N 59°21' E 018°15'510.7
2017-Jul-17 08:01N 59°20' E 018°04'1 2.5
2017-Jul-17 07:30N 59°19' E 018°07'713.7
2017-Jul-17 07:00N 59°23' E 018°18'3 6.6
2017-Jul-17 06:30N 59°26' E 018°22'1215.3
2017-Jul-17 05:44N 59°34' E 018°38'312.6
2017-Jul-17 05:30N 59°34' E 018°44'611.1
2017-Jul-17 05:00N 59°37' E 018°53'3 5.3
2017-Jul-17 04:30N 59°39' E 018°56'0 0.0
2017-Jul-17 04:00N 59°39' E 018°56'0 0.0
2017-Jul-17 03:30N 59°39' E 018°56'0 0.0
2017-Jul-17 03:00N 59°39' E 018°56'0 0.0
2017-Jul-17 02:30N 59°39' E 018°56'0 0.0
2017-Jul-17 02:00N 59°39' E 018°56'0 0.0
2017-Jul-17 01:30N 59°39' E 018°56'0 0.0
2017-Jul-17 01:00N 59°39' E 018°56'0 0.0
2017-Jul-17 00:30N 59°39' E 018°56'0 0.0
2017-Jul-17 00:00N 59°39' E 018°56'0 0.0
2017-Jul-16 23:30N 59°39' E 018°56'0 0.0
2017-Jul-16 23:00N 59°39' E 018°56'0 0.0
2017-Jul-16 22:30N 59°39' E 018°56'0 0.0
2017-Jul-16 22:00N 59°39' E 018°56'1 1.8
2017-Jul-16 21:31N 59°38' E 018°55'5 9.6
2017-Jul-16 21:01N 59°35' E 018°49'916.0
2017-Jul-16 20:27N 59°31' E 018°33'817.1
2017-Jul-16 20:00N 59°26' E 018°22'5 9.8
2017-Jul-16 19:30N 59°22' E 018°16'612.6
2017-Jul-16 19:01N 59°20' E 018°05'0 0.5
2017-Jul-16 18:30N 59°19' E 018°05'510.3
2017-Jul-16 18:00N 59°21' E 018°14'612.1
2017-Jul-16 17:30N 59°26' E 018°22'1018.1
2017-Jul-16 16:59N 59°33' E 018°35'612.7
2017-Jul-16 16:31N 59°34' E 018°46'4 8.5
2017-Jul-16 16:01N 59°37' E 018°52'5 9.3
2017-Jul-16 15:30N 59°40' E 018°59'612.3
2017-Jul-16 15:01N 59°44' E 019°09'510.1
2017-Jul-16 14:31N 59°48' E 019°06'3 5.2
2017-Jul-16 14:00N 59°51' E 019°06'0 0.0
2017-Jul-16 13:31N 59°51' E 019°06'0 0.0
2017-Jul-16 13:00N 59°51' E 019°06'0 0.0
2017-Jul-16 12:30N 59°51' E 019°06'1 2.1
2017-Jul-16 12:00N 59°50' E 019°05'612.4
2017-Jul-16 11:31N 59°45' E 019°10'611.4
2017-Jul-16 11:00N 59°39' E 019°07'4 7.1
2017-Jul-16 10:30N 59°36' E 019°10'611.0
2017-Jul-16 10:01N 59°38' E 019°00'3 5.3
2017-Jul-16 09:30N 59°38' E 018°55'4 7.1
2017-Jul-16 09:00N 59°35' E 018°51'510.3
2017-Jul-16 08:31N 59°34' E 018°41'713.7
2017-Jul-16 08:00N 59°30' E 018°30'714.6
2017-Jul-16 07:31N 59°24' E 018°21'5 9.4
2017-Jul-16 07:00N 59°21' E 018°14'510.2
2017-Jul-16 06:30N 59°20' E 018°05'0 0.0
2017-Jul-16 06:00N 59°20' E 018°05'0 0.0
2017-Jul-16 05:30N 59°20' E 018°05'0 0.0
2017-Jul-16 05:00N 59°20' E 018°05'0 0.0
2017-Jul-16 04:30N 59°20' E 018°05'0 0.0
2017-Jul-16 02:12N 59°20' E 018°05'0 0.0
2017-Jul-16 01:56N 59°20' E 018°05'0 0.0
2017-Jul-16 01:30N 59°20' E 018°05'0 0.0
2017-Jul-16 00:59N 59°20' E 018°05'0 0.0
2017-Jul-16 00:30N 59°20' E 018°05'0 0.0
2017-Jul-15 23:58N 59°20' E 018°05'0 0.0
2017-Jul-15 23:30N 59°20' E 018°05'0 0.0
2017-Jul-15 22:56N 59°20' E 018°05'0 0.0
2017-Jul-15 22:29N 59°20' E 018°05'0 0.0
2017-Jul-15 22:00N 59°20' E 018°05'0 0.0
2017-Jul-15 21:29N 59°20' E 018°05'0 0.0
2017-Jul-15 21:01N 59°20' E 018°05'0 0.0
2017-Jul-15 20:29N 59°20' E 018°05'0 0.0
2017-Jul-15 20:01N 59°20' E 018°05'0 0.0
2017-Jul-15 19:10N 59°20' E 018°05'0 0.0
2017-Jul-15 18:55N 59°20' E 018°05'0 1.1
2017-Jul-15 18:31N 59°19' E 018°05'713.0
2017-Jul-15 18:00N 59°22' E 018°17'510.7
2017-Jul-15 17:30N 59°26' E 018°23'816.3
2017-Jul-15 17:00N 59°32' E 018°34'612.9
2017-Jul-15 16:31N 59°34' E 018°46'4 8.4
2017-Jul-15 16:01N 59°37' E 018°52'4 7.1
2017-Jul-15 15:31N 59°40' E 018°57'3 5.4
2017-Jul-15 15:00N 59°37' E 019°00'5 5.2
2017-Jul-15 14:00N 59°39' E 019°10'714.2
2017-Jul-15 13:31N 59°46' E 019°07'5 9.8
2017-Jul-15 13:00N 59°51' E 019°06'0 0.0
2017-Jul-15 12:30N 59°51' E 019°06'0 0.0
2017-Jul-15 12:00N 59°51' E 019°06'0 0.0
2017-Jul-15 11:30N 59°51' E 019°06'1 1.8
2017-Jul-15 11:01N 59°50' E 019°05'611.1
2017-Jul-15 10:31N 59°45' E 019°09'510.2
2017-Jul-15 10:00N 59°42' E 019°02'5 9.9
2017-Jul-15 09:30N 59°38' E 018°55'4 7.9
2017-Jul-15 09:00N 59°35' E 018°50'510.9
2017-Jul-15 08:30N 59°34' E 018°40'611.6
2017-Jul-15 07:57N 59°30' E 018°30'614.5
2017-Jul-15 07:30N 59°25' E 018°22'510.5
2017-Jul-15 07:00N 59°21' E 018°14'510.5
2017-Jul-15 06:30N 59°20' E 018°04'0 0.1
2017-Jul-15 06:00N 59°20' E 018°05'0 0.0
2017-Jul-15 05:30N 59°20' E 018°05'0 0.0
2017-Jul-15 05:00N 59°20' E 018°05'0 0.0
2017-Jul-15 04:30N 59°20' E 018°05'0 0.0
2017-Jul-15 04:01N 59°20' E 018°05'0 0.0
2017-Jul-15 03:30N 59°20' E 018°05'0 0.0
2017-Jul-15 03:00N 59°20' E 018°05'0 0.0
2017-Jul-15 02:30N 59°20' E 018°05'0 0.0
2017-Jul-15 02:00N 59°20' E 018°05'0 0.0
2017-Jul-15 01:30N 59°20' E 018°05'0 0.0
2017-Jul-15 01:00N 59°20' E 018°05'0 0.0
2017-Jul-15 00:31N 59°20' E 018°05'0 0.0
2017-Jul-15 00:00N 59°20' E 018°05'0 0.0
2017-Jul-14 23:30N 59°20' E 018°05'0 0.0
2017-Jul-14 23:00N 59°20' E 018°05'0 0.0
2017-Jul-14 22:30N 59°20' E 018°05'0 0.0
2017-Jul-14 22:00N 59°20' E 018°05'0 0.0
2017-Jul-14 21:30N 59°20' E 018°05'0 0.0
2017-Jul-14 21:00N 59°20' E 018°05'0 0.0
2017-Jul-14 20:30N 59°20' E 018°05'0 0.0
2017-Jul-14 20:00N 59°20' E 018°05'0 0.0
2017-Jul-14 19:30N 59°20' E 018°05'0 0.0
2017-Jul-14 19:00N 59°20' E 018°05'4 8.9
2017-Jul-14 18:30N 59°20' E 018°13'611.6
2017-Jul-14 18:00N 59°25' E 018°22'713.6
2017-Jul-14 17:30N 59°30' E 018°30'713.9
2017-Jul-14 17:00N 59°34' E 018°40'510.1
2017-Jul-14 16:31N 59°35' E 018°50'4 8.4
2017-Jul-14 16:00N 59°38' E 018°55'611.9
2017-Jul-14 15:30N 59°42' E 019°04'4 7.5
2017-Jul-14 15:00N 59°45' E 019°08'611.6
2017-Jul-14 14:31N 59°51' E 019°06'0 0.1
2017-Jul-14 14:01N 59°51' E 019°06'0 0.0
2017-Jul-14 13:31N 59°51' E 019°06'0 0.0
2017-Jul-14 13:00N 59°51' E 019°06'1 1.6
2017-Jul-14 12:31N 59°51' E 019°05'611.0
2017-Jul-14 12:00N 59°45' E 019°09'4 8.5
2017-Jul-14 11:31N 59°42' E 019°03'612.4
2017-Jul-14 11:00N 59°38' E 018°54'4 7.2
2017-Jul-14 10:30N 59°35' E 018°50'611.2
2017-Jul-14 10:00N 59°34' E 018°39'711.7
2017-Jul-14 09:26N 59°30' E 018°29'715.5
2017-Jul-14 09:00N 59°24' E 018°21'5 9.8
2017-Jul-14 08:30N 59°21' E 018°15'510.8
2017-Jul-14 08:01N 59°20' E 018°04'1 1.5
2017-Jul-14 07:30N 59°19' E 018°06'714.1
2017-Jul-14 07:00N 59°23' E 018°17'3 6.6
2017-Jul-14 06:30N 59°25' E 018°21'713.9
2017-Jul-14 06:01N 59°30' E 018°31'712.8
2017-Jul-14 05:28N 59°34' E 018°43'511.6
2017-Jul-14 05:01N 59°36' E 018°52'4 7.0
2017-Jul-14 04:31N 59°39' E 018°56'815.4
2017-Jul-14 04:00N 59°36' E 019°10'0 0.9
2017-Jul-14 03:30N 59°36' E 019°10'0 0.0
2017-Jul-14 03:01N 59°36' E 019°10'0 0.0
2017-Jul-14 02:30N 59°36' E 019°10'0 0.0
2017-Jul-14 02:00N 59°36' E 019°10'0 0.0
2017-Jul-14 01:30N 59°36' E 019°10'0 0.0
2017-Jul-14 01:00N 59°36' E 019°10'0 0.0
2017-Jul-14 00:30N 59°36' E 019°10'0 0.0
2017-Jul-14 00:00N 59°36' E 019°10'0 0.0
2017-Jul-13 23:30N 59°36' E 019°10'0 0.0
2017-Jul-13 23:00N 59°36' E 019°10'0 0.0
2017-Jul-13 22:30N 59°36' E 019°10'0 0.0
2017-Jul-13 22:00N 59°36' E 019°10'0 0.0
2017-Jul-13 21:30N 59°36' E 019°10'0 0.0
2017-Jul-13 21:00N 59°36' E 019°10'0 0.0
2017-Jul-13 20:30N 59°36' E 019°10'3 6.1
2017-Jul-13 20:01N 59°35' E 019°05'510.6
2017-Jul-13 19:31N 59°39' E 018°59'3 5.3
2017-Jul-13 19:00N 59°38' E 018°54'3 6.8
2017-Jul-13 18:30N 59°35' E 018°50'612.5
2017-Jul-13 18:00N 59°34' E 018°38'812.7
2017-Jul-13 17:22N 59°28' E 018°28'411.8
2017-Jul-13 17:00N 59°25' E 018°22'510.0
2017-Jul-13 16:30N 59°21' E 018°14'510.5
2017-Jul-13 16:01N 59°20' E 018°04'0 0.1
2017-Jul-13 15:30N 59°20' E 018°05'4 7.9
2017-Jul-13 15:00N 59°20' E 018°12'612.3
2017-Jul-13 14:30N 59°24' E 018°21'4 7.9
2017-Jul-13 14:01N 59°27' E 018°26'814.2
2017-Jul-13 13:25N 59°33' E 018°37'615.5
2017-Jul-13 13:00N 59°37' E 018°48'511.0
2017-Jul-13 12:31N 59°40' E 018°57'3 5.6
2017-Jul-13 12:00N 59°38' E 019°00'510.5
2017-Jul-13 11:30N 59°36' E 019°10'0 0.0
2017-Jul-13 11:00N 59°36' E 019°10'0 0.0
2017-Jul-13 10:30N 59°36' E 019°10'0 0.0
2017-Jul-13 10:00N 59°36' E 019°10'510.6
2017-Jul-13 09:30N 59°37' E 019°00'3 5.7
2017-Jul-13 09:00N 59°39' E 018°56'3 5.1
2017-Jul-13 08:31N 59°38' E 018°52'1213.8
2017-Jul-13 07:39N 59°31' E 018°33'414.8
2017-Jul-13 07:22N 59°28' E 018°28'513.4
2017-Jul-13 07:00N 59°24' E 018°21'5 9.4
2017-Jul-13 06:30N 59°21' E 018°15'510.6
2017-Jul-13 06:00N 59°20' E 018°05'0 0.0
2017-Jul-13 05:30N 59°20' E 018°05'0 0.0
2017-Jul-13 05:00N 59°20' E 018°05'0 0.0
2017-Jul-13 04:30N 59°20' E 018°05'0 0.0
2017-Jul-13 04:00N 59°20' E 018°05'0 0.0
2017-Jul-13 03:30N 59°20' E 018°05'0 0.0
2017-Jul-13 03:00N 59°20' E 018°05'0 0.0
2017-Jul-13 02:30N 59°20' E 018°05'  

Dump ship's entire track history